Time;durP1;ratioP1;P1;durP2;ratioP2;P2;SDS_P1;SDS_P2;PMS_P1;PMS_P2;Temp;Humidity;BMP_temperature;BMP_pressure;BME280_temperature;BME280_humidity;BME280_pressure;Samples;Min_cycle;Max_cycle;Signal;HPM_P1;HPM_P2
2022/03/22 00:01:52;;;;;;;39.47;22.17;;;6.80;99.90;;;;;;5015803;28;20058;-74
2022/03/22 00:04:18;;;;;;;39.15;22.58;;;6.80;99.90;;;;;;5015700;28;20132;-74
2022/03/22 00:06:44;;;;;;;41.17;22.05;;;6.70;99.90;;;;;;5015445;28;20133;-75
2022/03/22 00:09:10;;;;;;;35.35;21.80;;;6.70;99.90;;;;;;5015573;28;20053;-74
2022/03/22 00:11:36;;;;;;;38.25;22.73;;;6.60;99.90;;;;;;5015666;28;20042;-74
2022/03/22 00:14:02;;;;;;;39.47;23.55;;;6.60;99.90;;;;;;5015657;28;20466;-74
2022/03/22 00:16:29;;;;;;;38.40;22.50;;;6.60;99.90;;;;;;5015611;28;20042;-75
2022/03/22 00:18:55;;;;;;;42.50;22.33;;;6.60;99.90;;;;;;5015584;28;20410;-75
2022/03/22 00:21:21;;;;;;;36.47;21.95;;;6.50;99.90;;;;;;5014586;28;20037;-74
2022/03/22 00:23:47;;;;;;;37.25;23.48;;;6.50;99.90;;;;;;5015474;28;20053;-75
2022/03/22 00:26:13;;;;;;;37.13;22.37;;;6.50;99.90;;;;;;5015395;28;20053;-74
2022/03/22 00:28:38;;;;;;;40.05;23.05;;;6.40;99.90;;;;;;5015285;28;20632;-75
2022/03/22 00:31:05;;;;;;;39.08;22.95;;;6.40;99.90;;;;;;5014137;28;20041;-75
2022/03/22 00:33:31;;;;;;;34.92;21.73;;;6.40;99.90;;;;;;5015561;28;20046;-75
2022/03/22 00:35:57;;;;;;;42.22;23.00;;;6.40;99.90;;;;;;5015258;28;20347;-75
2022/03/22 00:38:23;;;;;;;44.20;22.63;;;6.40;99.90;;;;;;5015203;28;20041;-75
2022/03/22 00:40:48;;;;;;;37.33;21.85;;;6.40;99.90;;;;;;5015224;28;20119;-74
2022/03/22 00:43:14;;;;;;;41.60;22.83;;;6.40;99.90;;;;;;5015134;28;20501;-75
2022/03/22 00:45:40;;;;;;;41.90;22.70;;;6.40;99.90;;;;;;5015110;28;20038;-74
2022/03/22 00:48:08;;;;;;;41.80;24.50;;;6.40;99.90;;;;;;5015195;28;20038;-75
2022/03/22 00:50:36;;;;;;;36.83;22.95;;;6.40;99.90;;;;;;5015121;28;20093;-75
2022/03/22 00:53:04;;;;;;;39.83;23.02;;;6.40;99.90;;;;;;5015077;28;20050;-75
2022/03/22 00:55:31;;;;;;;36.80;22.60;;;6.40;99.90;;;;;;5014731;28;20034;-75
2022/03/22 00:57:57;;;;;;;37.78;22.45;;;6.40;99.90;;;;;;5015376;28;20405;-75
2022/03/22 01:00:25;;;;;;;39.58;23.50;;;6.40;99.90;;;;;;5014566;28;20050;-75
2022/03/22 01:02:51;;;;;;;;;;;6.30;99.90;;;;;;5015067;28;20088;-75
2022/03/22 01:05:19;;;;;;;39.08;21.88;;;6.30;99.90;;;;;;5014836;28;19921;-75
2022/03/22 01:07:54;;;;;;;41.72;22.80;;;6.20;99.90;;;;;;5014039;28;20054;-74
2022/03/22 01:10:22;;;;;;;38.15;22.17;;;6.20;99.90;;;;;;5014734;28;20049;-75
2022/03/22 01:12:48;;;;;;;37.22;22.15;;;6.20;99.90;;;;;;5014429;28;20080;-75
2022/03/22 01:15:22;;;;;;;36.90;23.17;;;6.20;99.90;;;;;;5014467;28;20485;-75
2022/03/22 01:17:54;;;;;;;39.40;22.65;;;6.20;99.90;;;;;;5014481;28;20046;-75
2022/03/22 01:20:22;;;;;;;40.13;23.10;;;6.10;99.90;;;;;;5013305;28;20064;-75
2022/03/22 01:22:49;;;;;;;37.63;22.58;;;6.10;99.90;;;;;;5014255;28;20074;-75
2022/03/22 01:25:17;;;;;;;42.50;22.58;;;6.10;99.90;;;;;;5014465;28;20196;-75
2022/03/22 01:27:46;;;;;;;39.17;22.48;;;6.20;99.90;;;;;;5014039;28;20054;-75
2022/03/22 01:30:13;;;;;;;40.38;23.35;;;6.10;99.90;;;;;;5014642;28;20085;-74
2022/03/22 01:32:39;;;;;;;38.17;22.08;;;6.10;99.90;;;;;;5014207;28;20481;-74
2022/03/22 01:35:06;;;;;;;40.00;22.45;;;6.10;99.90;;;;;;5014040;28;20049;-75
2022/03/22 01:37:33;;;;;;;40.38;22.15;;;6.10;99.90;;;;;;5014063;28;20347;-75
2022/03/22 01:39:59;;;;;;;37.00;22.23;;;6.10;99.90;;;;;;5014226;28;20045;-75
2022/03/22 01:42:25;;;;;;;36.90;21.33;;;6.10;99.90;;;;;;5014054;28;20045;-75
2022/03/22 01:44:51;;;;;;;38.97;22.40;;;6.10;99.90;;;;;;5014071;28;20046;-75
2022/03/22 01:47:23;;;;;;;38.17;23.40;;;6.00;99.90;;;;;;5013805;28;20042;-75
2022/03/22 01:49:50;;;;;;;36.67;22.55;;;6.00;99.90;;;;;;5013953;28;20128;-75
2022/03/22 01:52:19;;;;;;;37.60;21.85;;;6.00;99.90;;;;;;5013957;28;20050;-76
2022/03/22 01:54:46;;;;;;;39.63;23.40;;;6.00;99.90;;;;;;5013864;28;20125;-75
2022/03/22 01:57:11;;;;;;;41.22;22.55;;;6.00;99.90;;;;;;5014174;28;20042;-76
2022/03/22 01:59:37;;;;;;;41.42;23.27;;;6.00;99.90;;;;;;5013829;28;20473;-75
2022/03/22 02:07:37;;;;;;;42.53;23.23;;;6.00;99.90;;;;;;5013795;28;20478;-76
2022/03/22 02:10:04;;;;;;;44.25;23.17;;;6.00;99.90;;;;;;5013873;28;20054;-75
2022/03/22 02:12:30;;;;;;;;;;;5.90;99.90;;;;;;5014132;28;20058;-75
2022/03/22 02:14:55;;;;;;;39.50;22.77;;;5.90;99.90;;;;;;5013698;28;20320;-75
2022/03/22 02:17:21;;;;;;;35.67;22.25;;;5.90;99.90;;;;;;5014194;28;20450;-75
2022/03/22 02:19:47;;;;;;;41.13;22.27;;;5.90;99.90;;;;;;5019966;28;20045;-75
2022/03/22 02:22:17;;;;;;;38.45;22.92;;;5.80;99.90;;;;;;5020232;28;20054;-75
2022/03/22 02:24:43;;;;;;;39.45;23.10;;;5.80;99.90;;;;;;5020749;28;20089;-76
2022/03/22 02:27:09;;;;;;;38.40;23.88;;;5.80;99.90;;;;;;5019940;28;20482;-75
2022/03/22 02:29:35;;;;;;;43.28;23.65;;;5.70;99.90;;;;;;5020532;28;20065;-75
2022/03/22 02:32:06;;;;;;;42.65;24.38;;;5.70;99.90;;;;;;5020115;28;20081;-75
2022/03/22 02:34:36;;;;;;;37.95;23.05;;;5.70;99.90;;;;;;5020062;28;20077;-75
2022/03/22 02:37:01;;;;;;;41.53;22.67;;;5.70;99.90;;;;;;5020122;28;20338;-75
2022/03/22 02:39:27;;;;;;;36.63;23.42;;;5.60;99.90;;;;;;5020375;28;20041;-74
2022/03/22 02:41:52;;;;;;;41.40;24.23;;;5.60;99.90;;;;;;5020025;28;20053;-75
2022/03/22 02:44:19;;;;;;;40.28;24.08;;;5.60;99.90;;;;;;5019847;28;20049;-74
2022/03/22 02:46:45;;;;;;;41.97;23.77;;;5.50;99.90;;;;;;5020074;28;20053;-74
2022/03/22 02:49:12;;;;;;;39.83;24.02;;;5.50;99.90;;;;;;5019966;28;20507;-75
2022/03/22 02:51:37;;;;;;;46.03;24.45;;;5.50;99.90;;;;;;5019966;28;20046;-75
2022/03/22 02:54:03;;;;;;;40.97;24.38;;;5.50;99.90;;;;;;5019681;28;20052;-74
2022/03/22 02:56:29;;;;;;;38.53;22.77;;;5.40;99.90;;;;;;5019751;28;20037;-74
2022/03/22 02:58:54;;;;;;;45.65;25.35;;;5.40;99.90;;;;;;5019746;28;20057;-74
2022/03/22 03:01:20;;;;;;;38.90;23.83;;;5.40;99.90;;;;;;5019740;28;20050;-74
2022/03/22 03:03:45;;;;;;;42.08;24.98;;;5.40;99.90;;;;;;5019751;28;20045;-75
2022/03/22 03:06:12;;;;;;;41.00;25.33;;;5.40;99.90;;;;;;5019826;28;20135;-74
2022/03/22 03:08:37;;;;;;;41.03;25.30;;;5.40;99.90;;;;;;5019836;28;20100;-75
2022/03/22 03:11:03;;;;;;;38.97;25.10;;;5.30;99.90;;;;;;5019608;28;20058;-74
2022/03/22 03:14:38;;;;;;;41.55;23.45;;;5.30;99.90;;;;;;5019394;28;20077;-75
2022/03/22 03:16:14;;;;;;;43.85;23.95;;;5.30;99.90;;;;;;5019232;28;20088;-75
2022/03/22 03:18:40;;;;;;;40.92;24.13;;;5.30;99.90;;;;;;5019579;28;20085;-74
2022/03/22 03:21:06;;;;;;;43.47;24.35;;;5.30;99.90;;;;;;5019593;28;20077;-75
2022/03/22 03:23:31;;;;;;;40.70;23.65;;;5.20;99.90;;;;;;5020049;28;20042;-74
2022/03/22 03:25:57;;;;;;;44.88;23.85;;;5.20;99.90;;;;;;5019262;28;20048;-74
2022/03/22 03:28:22;;;;;;;40.75;24.30;;;5.20;99.90;;;;;;5019784;28;20104;-75
2022/03/22 03:30:48;;;;;;;41.40;25.10;;;5.20;99.90;;;;;;5015747;28;20096;-74
2022/03/22 03:33:13;;;;;;;41.13;23.73;;;5.20;99.90;;;;;;5016364;28;20046;-75
2022/03/22 03:35:39;;;;;;;41.30;24.33;;;5.20;99.90;;;;;;5016251;28;20042;-75
2022/03/22 03:38:04;;;;;;;40.55;25.02;;;5.20;99.90;;;;;;5016295;28;20042;-75
2022/03/22 03:43:14;;;;;;;43.28;23.88;;;5.10;99.90;;;;;;5016601;28;20133;-76
2022/03/22 03:48:24;;;;;;;46.30;26.60;;;5.10;99.90;;;;;;5016294;28;20054;-76
2022/03/22 03:50:49;;;;;;;42.20;24.20;;;5.10;99.90;;;;;;5016077;28;20513;-76
2022/03/22 03:53:15;;;;;;;38.08;23.08;;;5.10;99.90;;;;;;5014864;28;20046;-75
2022/03/22 03:55:41;;;;;;;42.83;24.23;;;5.10;99.90;;;;;;5015889;28;20521;-75
2022/03/22 03:58:07;;;;;;;41.83;23.43;;;5.10;99.90;;;;;;5015992;28;20092;-75
2022/03/22 04:00:32;;;;;;;44.70;24.90;;;5.10;99.90;;;;;;5015950;28;20089;-75
2022/03/22 04:02:58;;;;;;;41.38;23.45;;;5.10;99.90;;;;;;5014536;28;20080;-76
2022/03/22 04:05:24;;;;;;;45.65;23.98;;;5.00;99.90;;;;;;5015708;28;20127;-75
2022/03/22 04:07:49;;;;;;;40.90;24.42;;;5.10;99.90;;;;;;5015626;28;20041;-75
2022/03/22 04:10:15;;;;;;;39.50;23.38;;;5.00;99.90;;;;;;5015731;28;20389;-75
2022/03/22 04:12:42;;;;;;;45.30;24.02;;;5.00;99.90;;;;;;5016073;28;20053;-75
2022/03/22 04:15:08;;;;;;;42.72;23.70;;;5.00;99.90;;;;;;5015610;28;20057;-75
2022/03/22 04:17:34;;;;;;;43.08;23.48;;;5.00;99.90;;;;;;5015603;28;20082;-75
2022/03/22 04:20:00;;;;;;;42.58;24.17;;;4.90;99.90;;;;;;5015502;28;20088;-76
2022/03/22 04:22:25;;;;;;;40.15;23.88;;;4.90;99.90;;;;;;5014311;28;20107;-75
2022/03/22 04:24:51;;;;;;;41.60;24.33;;;4.90;99.90;;;;;;5015508;28;20045;-76
2022/03/22 04:32:45;;;;;;;39.53;23.10;;;4.90;99.90;;;;;;5015190;28;20133;-75
2022/03/22 04:35:20;;;;;;;40.33;23.90;;;4.90;99.90;;;;;;5015117;28;20076;-76
2022/03/22 04:37:55;;;;;;;44.55;24.30;;;4.80;99.90;;;;;;5015611;28;20049;-75
2022/03/22 04:40:21;;;;;;;44.28;23.63;;;4.80;99.90;;;;;;5014987;28;20547;-75
2022/03/22 04:42:48;;;;;;;44.90;23.42;;;4.90;99.90;;;;;;5014351;28;20091;-76
2022/03/22 04:45:14;;;;;;;44.30;24.17;;;4.80;99.90;;;;;;5014752;28;20162;-76
2022/03/22 04:47:40;;;;;;;48.55;24.17;;;4.90;99.90;;;;;;5015106;28;20555;-76
2022/03/22 04:50:07;;;;;;;41.90;23.50;;;4.80;99.90;;;;;;5013911;28;20046;-76
2022/03/22 04:58:03;;;;;;;47.55;25.98;;;4.80;99.90;;;;;;5014864;28;20053;-75
2022/03/22 05:00:28;;;;;;;48.90;24.75;;;4.70;99.90;;;;;;5014941;28;20470;-76
2022/03/22 05:02:54;;;;;;;42.85;23.27;;;4.70;99.90;;;;;;5014602;28;20046;-76
2022/03/22 05:06:25;;;;;;;40.92;22.58;;;4.70;99.90;;;;;;5014745;28;20056;-76
2022/03/22 05:08:05;;;;;;;41.03;22.73;;;4.70;99.90;;;;;;5013464;28;20335;-76
2022/03/22 05:10:35;;;;;;;43.65;24.58;;;4.60;99.90;;;;;;5014621;28;20044;-75
2022/03/22 05:13:01;;;;;;;46.67;24.60;;;4.60;99.90;;;;;;5015063;28;20050;-76
2022/03/22 05:15:27;;;;;;;48.30;23.73;;;4.60;99.90;;;;;;5014454;28;20159;-76
2022/03/22 05:17:52;;;;;;;44.55;24.70;;;4.60;99.90;;;;;;5014508;28;20082;-75
2022/03/22 05:20:18;;;;;;;41.22;23.65;;;4.60;99.90;;;;;;5014442;28;20057;-76
2022/03/22 05:22:44;;;;;;;45.30;23.60;;;4.60;99.90;;;;;;5014453;28;20041;-75
2022/03/22 05:25:10;;;;;;;40.60;23.55;;;4.60;99.90;;;;;;5014218;28;20498;-76
2022/03/22 05:27:37;;;;;;;44.05;23.52;;;4.60;99.90;;;;;;5014097;28;20050;-76
2022/03/22 05:30:04;;;;;;;46.90;24.60;;;4.50;99.90;;;;;;5014166;28;20050;-76
2022/03/22 05:32:30;;;;;;;47.58;23.17;;;4.50;99.90;;;;;;5013953;28;20049;-75
2022/03/22 05:34:55;;;;;;;43.03;23.10;;;4.50;99.90;;;;;;5013257;28;20165;-75
2022/03/22 05:37:22;;;;;;;42.67;22.23;;;4.50;99.90;;;;;;5013758;28;20050;-76
2022/03/22 05:39:48;;;;;;;41.45;23.67;;;4.50;99.90;;;;;;5014147;28;20548;-76
2022/03/22 05:42:14;;;;;;;43.10;24.27;;;4.40;99.90;;;;;;5014480;28;20088;-76
2022/03/22 05:44:40;;;;;;;44.63;23.48;;;4.50;99.90;;;;;;5014140;28;20128;-76
2022/03/22 05:47:07;;;;;;;43.30;23.75;;;4.50;99.90;;;;;;5013521;28;20130;-75
2022/03/22 05:49:36;;;;;;;41.90;22.73;;;4.50;99.90;;;;;;5014218;28;20050;-75
2022/03/22 05:52:03;;;;;;;42.40;23.52;;;4.50;99.90;;;;;;5012735;28;20058;-75
2022/03/22 05:54:28;;;;;;;43.15;24.77;;;4.60;99.90;;;;;;5012758;28;20050;-73
2022/03/22 05:56:54;;;;;;;47.60;24.30;;;4.60;99.90;;;;;;5013839;28;20053;-75
2022/03/22 05:59:20;;;;;;;43.88;22.20;;;4.60;99.90;;;;;;5014123;28;20037;-75
2022/03/22 06:01:46;;;;;;;42.25;23.50;;;4.70;99.90;;;;;;5013895;28;20081;-75
2022/03/22 06:04:11;;;;;;;45.42;24.75;;;4.70;99.90;;;;;;5014068;28;20053;-75
2022/03/22 06:06:37;;;;;;;41.65;22.30;;;4.70;99.90;;;;;;5013929;28;20038;-76
2022/03/22 06:09:03;;;;;;;41.65;22.00;;;4.90;99.90;;;;;;5013694;28;20132;-76
2022/03/22 06:11:33;;;;;;;41.78;23.00;;;4.80;99.90;;;;;;5013737;28;20085;-76
2022/03/22 06:13:58;;;;;;;43.67;23.33;;;4.90;99.90;;;;;;5014209;28;20046;-76
2022/03/22 06:16:24;;;;;;;40.28;20.95;;;4.90;99.90;;;;;;5013568;28;20093;-75
2022/03/22 06:18:50;;;;;;;43.20;23.38;;;5.00;99.90;;;;;;5013649;28;20042;-75
2022/03/22 06:21:15;;;;;;;43.15;22.13;;;5.10;99.90;;;;;;5013642;28;20133;-75
2022/03/22 06:23:41;;;;;;;36.85;21.70;;;5.10;99.90;;;;;;5013620;28;20050;-75
2022/03/22 06:26:06;;;;;;;41.00;21.35;;;5.20;99.90;;;;;;5013565;28;20068;-75
2022/03/22 06:28:32;;;;;;;37.28;21.50;;;5.30;99.90;;;;;;5013540;28;20057;-75
2022/03/22 06:30:58;;;;;;;41.78;21.75;;;5.30;99.90;;;;;;5013582;28;20072;-75
2022/03/22 06:33:24;;;;;;;38.72;20.73;;;5.40;99.90;;;;;;5013624;28;20053;-75
2022/03/22 06:35:50;;;;;;;34.47;19.42;;;5.50;99.90;;;;;;5013575;28;20422;-75
2022/03/22 06:38:16;;;;;;;38.08;20.42;;;5.50;99.90;;;;;;5013229;28;20131;-76
2022/03/22 06:40:42;;;;;;;38.13;21.50;;;5.20;99.90;;;;;;5013950;28;20168;-74
2022/03/22 06:43:10;;;;;;;38.90;21.65;;;5.80;99.90;;;;;;5013808;28;20739;-75
2022/03/22 06:45:37;;;;;;;40.55;21.02;;;5.90;99.90;;;;;;5013481;28;20175;-77
2022/03/22 06:48:03;;;;;;;34.30;20.73;;;5.90;99.90;;;;;;5013412;28;20046;-75
2022/03/22 06:50:31;;;;;;;37.17;19.77;;;6.00;99.90;;;;;;5013071;28;20045;-75
2022/03/22 06:52:57;;;;;;;36.28;20.20;;;6.10;99.90;;;;;;5013175;28;20046;-75
2022/03/22 06:55:22;;;;;;;33.80;20.60;;;6.20;99.90;;;;;;5013109;28;20044;-73
2022/03/22 06:57:52;;;;;;;36.15;19.80;;;6.20;99.90;;;;;;5013648;28;20050;-75
2022/03/22 07:00:19;;;;;;;38.78;21.30;;;6.40;99.90;;;;;;5013105;28;20042;-74
2022/03/22 07:02:45;;;;;;;37.97;20.63;;;6.50;99.90;;;;;;5013146;28;20085;-76
2022/03/22 07:05:11;;;;;;;33.65;19.50;;;6.60;99.90;;;;;;5014850;28;20061;-73
2022/03/22 07:07:38;;;;;;;37.55;19.83;;;6.70;99.90;;;;;;5016817;28;20046;-74
2022/03/22 07:10:12;;;;;;;37.38;19.17;;;6.80;99.90;;;;;;5016830;28;20128;-74
2022/03/22 07:12:52;;;;;;;33.63;19.35;;;6.90;99.90;;;;;;5016954;28;20042;-73
2022/03/22 07:15:23;;;;;;;33.85;18.83;;;7.10;99.90;;;;;;5015576;28;20374;-72
2022/03/22 07:17:52;;;;;;;35.22;19.75;;;7.20;99.90;;;;;;5016797;28;20103;-74
2022/03/22 07:20:18;;;;;;;30.42;17.33;;;7.40;99.90;;;;;;5016648;28;20129;-72
2022/03/22 07:22:43;;;;;;;30.65;17.83;;;7.50;99.90;;;;;;5016757;28;20081;-72
2022/03/22 07:25:09;;;;;;;32.53;19.70;;;7.70;99.90;;;;;;5016863;28;20054;-73
2022/03/22 07:27:35;;;;;;;30.42;19.50;;;7.90;99.90;;;;;;5016441;28;20486;-72
2022/03/22 07:30:02;;;;;;;34.40;19.27;;;8.00;99.90;;;;;;5016760;28;20054;-73
2022/03/22 07:32:28;;;;;;;34.00;18.92;;;8.20;99.90;;;;;;5016660;28;20050;-72
2022/03/22 07:34:53;;;;;;;30.13;18.33;;;8.30;99.90;;;;;;5015918;28;20473;-73
2022/03/22 07:37:19;;;;;;;31.55;19.63;;;8.40;99.90;;;;;;5035593;28;20440;-75
2022/03/22 07:39:45;;;;;;;34.55;18.95;;;8.60;99.90;;;;;;5036132;28;20493;-73
2022/03/22 07:42:11;;;;;;;31.17;19.48;;;8.70;99.90;;;;;;5036029;28;20044;-72
2022/03/22 07:44:38;;;;;;;33.80;19.25;;;8.80;99.90;;;;;;5035785;28;20045;-72
2022/03/22 07:47:04;;;;;;;31.10;19.02;;;8.90;99.90;;;;;;5035702;28;20456;-72
2022/03/22 07:54:59;;;;;;;33.58;17.65;;;9.30;99.90;;;;;;5035888;28;20053;-70
2022/03/22 07:57:24;;;;;;;31.73;18.40;;;9.40;99.90;;;;;;5035554;28;20128;-72
2022/03/22 07:59:50;;;;;;;30.70;18.98;;;9.50;99.90;;;;;;5035755;28;20533;-73
2022/03/22 08:02:15;;;;;;;30.90;17.48;;;9.60;99.90;;;;;;5035714;28;20488;-72
2022/03/22 08:04:41;;;;;;;28.60;18.30;;;9.70;99.90;;;;;;5035728;28;20045;-72
2022/03/22 08:07:07;;;;;;;28.13;17.83;;;9.80;99.90;;;;;;5035556;28;20091;-72
2022/03/22 08:09:33;;;;;;;32.72;17.10;;;9.90;99.90;;;;;;5035848;28;20049;-71
2022/03/22 08:11:58;;;;;;;31.13;17.95;;;10.10;99.90;;;;;;5035471;28;20123;-71
2022/03/22 08:14:24;;;;;;;36.95;17.38;;;10.20;99.90;;;;;;5035487;28;20095;-73
2022/03/22 08:16:49;;;;;;;29.40;17.55;;;10.30;99.90;;;;;;5034847;28;20046;-72
2022/03/22 08:19:18;;;;;;;31.38;18.23;;;10.40;99.90;;;;;;5035680;28;20046;-73
2022/03/22 08:21:45;;;;;;;29.17;18.42;;;10.50;99.90;;;;;;5035419;28;20060;-72
2022/03/22 08:24:11;;;;;;;32.47;17.83;;;10.60;99.90;;;;;;5035357;28;20072;-72
2022/03/22 08:26:37;;;;;;;28.13;18.17;;;10.80;99.90;;;;;;5035077;28;20038;-73
2022/03/22 08:29:03;;;;;;;27.45;17.13;;;10.90;99.90;;;;;;5035328;28;20440;-72
2022/03/22 08:31:29;;;;;;;28.55;16.83;;;11.00;99.90;;;;;;5035344;28;20046;-72
2022/03/22 08:33:56;;;;;;;29.52;17.25;;;11.10;99.90;;;;;;5034917;28;20435;-72
2022/03/22 08:36:22;;;;;;;28.15;16.60;;;11.20;99.90;;;;;;5035126;28;20052;-72
2022/03/22 08:38:48;;;;;;;28.90;16.88;;;11.30;99.90;;;;;;5034978;28;20041;-73
2022/03/22 08:41:14;;;;;;;30.95;17.48;;;11.40;99.90;;;;;;5034864;28;20045;-74
2022/03/22 08:43:40;;;;;;;30.00;17.90;;;11.50;99.90;;;;;;5034893;28;20447;-72
2022/03/22 08:46:06;;;;;;;28.95;17.15;;;11.60;99.90;;;;;;5034852;28;20374;-73
2022/03/22 08:48:32;;;;;;;31.37;17.33;;;11.70;99.90;;;;;;5034774;28;20050;-74
2022/03/22 08:50:58;;;;;;;28.60;16.80;;;11.80;99.90;;;;;;5034501;28;20477;-73
2022/03/22 08:53:24;;;;;;;25.88;15.95;;;12.00;99.90;;;;;;5035116;28;20050;-72
2022/03/22 08:55:50;;;;;;;29.33;16.38;;;12.10;99.90;;;;;;5034341;28;20057;-73
2022/03/22 08:58:16;;;;;;;27.23;16.27;;;12.20;99.90;;;;;;5034391;28;20132;-73
2022/03/22 09:00:45;;;;;;;27.43;17.37;;;12.40;99.90;;;;;;5034698;28;20053;-73
2022/03/22 09:03:11;;;;;;;26.90;16.80;;;12.50;99.90;;;;;;5034659;28;20280;-74
2022/03/22 09:08:20;;;;;;;26.15;15.43;;;12.70;99.90;;;;;;5034616;28;20084;-73
2022/03/22 09:10:50;;;;;;;25.35;15.27;;;12.90;99.90;;;;;;5034248;28;20073;-74
2022/03/22 09:13:18;;;;;;;27.60;14.35;;;13.00;99.90;;;;;;5034479;28;20052;-75
2022/03/22 09:15:44;;;;;;;25.60;15.75;;;13.00;99.90;;;;;;5034265;28;20128;-75
2022/03/22 09:18:16;;;;;;;24.75;14.57;;;13.10;99.90;;;;;;5016919;28;20176;-72
2022/03/22 09:20:43;;;;;;;28.20;15.18;;;13.30;99.90;;;;;;5034707;28;20084;-77
2022/03/22 09:23:09;;;;;;;;;;;13.40;99.90;;;;;;5034670;28;20053;-75
2022/03/22 09:25:36;;;;;;;23.65;14.50;;;13.50;99.90;;;;;;5033958;28;20326;-76
2022/03/22 09:28:04;;;;;;;23.80;13.27;;;13.60;99.90;;;;;;5033379;28;20382;-74
2022/03/22 09:30:30;;;;;;;23.20;14.98;;;13.70;99.90;;;;;;5034111;28;20128;-72
2022/03/22 09:32:57;;;;;;;23.35;13.60;;;13.80;99.90;;;;;;5020632;28;20455;-75
2022/03/22 09:35:22;;;;;;;24.60;15.75;;;13.90;99.90;;;;;;5014356;28;20093;-73
2022/03/22 09:37:48;;;;;;;25.05;14.90;;;13.90;99.90;;;;;;5014185;28;20081;-75
2022/03/22 09:40:16;;;;;;;24.93;14.53;;;13.90;99.90;;;;;;5014335;28;20397;-76
2022/03/22 09:42:42;;;;;;;24.55;13.95;;;14.00;99.90;;;;;;5014348;28;20057;-75
2022/03/22 09:45:09;;;;;;;23.93;14.67;;;14.10;99.90;;;;;;5014041;28;20502;-74
2022/03/22 09:47:37;;;;;;;25.00;14.75;;;14.10;99.90;;;;;;5014271;28;20046;-74
2022/03/22 09:50:10;;;;;;;26.17;15.30;;;14.20;99.90;;;;;;5014438;28;20069;-74
2022/03/22 09:52:36;;;;;;;26.23;15.07;;;14.20;99.90;;;;;;5014169;28;20050;-74
2022/03/22 09:55:04;;;;;;;27.55;15.40;;;14.30;99.90;;;;;;5014180;28;20042;-76
2022/03/22 09:57:29;;;;;;;23.27;15.95;;;14.40;99.90;;;;;;5014811;28;20049;-76
2022/03/22 09:59:55;;;;;;;24.53;14.50;;;14.60;99.90;;;;;;5014425;28;20046;-75
2022/03/22 10:02:32;;;;;;;22.33;15.07;;;14.70;99.90;;;;;;5014140;28;20046;-76
2022/03/22 10:04:58;;;;;;;27.70;15.02;;;14.90;99.90;;;;;;5014222;28;20393;-76
2022/03/22 10:07:24;;;;;;;27.63;14.83;;;14.90;99.90;;;;;;5013930;28;20042;-75
2022/03/22 10:10:05;;;;;;;23.20;15.20;;;14.90;99.90;;;;;;5014108;28;20057;-77
2022/03/22 10:12:36;;;;;;;24.65;15.48;;;14.90;99.90;;;;;;5013964;28;20060;-76
2022/03/22 10:15:09;;;;;;;22.30;14.13;;;14.90;99.90;;;;;;5013971;28;20499;-78
2022/03/22 10:17:36;;;;;;;20.30;13.98;;;15.00;99.90;;;;;;5013857;28;20121;-77
2022/03/22 10:20:02;;;;;;;25.20;14.85;;;15.00;99.90;;;;;;5013785;28;20393;-74
2022/03/22 10:22:28;;;;;;;24.80;14.25;;;15.10;99.90;;;;;;5013849;28;20537;-76
2022/03/22 10:24:58;;;;;;;24.65;15.18;;;15.30;99.90;;;;;;5013820;28;20129;-75
2022/03/22 10:27:34;;;;;;;19.52;14.15;;;15.40;99.90;;;;;;5013923;28;20084;-76
2022/03/22 10:30:03;;;;;;;22.50;14.60;;;15.40;99.90;;;;;;5013813;28;20056;-76
2022/03/22 10:32:34;;;;;;;22.92;14.27;;;15.50;99.90;;;;;;5013698;28;20125;-75
2022/03/22 10:35:30;;;;;;;24.30;15.43;;;15.60;99.70;;;;;;5013741;28;20041;-75
2022/03/22 10:38:05;;;;;;;26.27;14.25;;;15.70;98.90;;;;;;5001315;28;20085;-75
2022/03/22 10:40:40;;;;;;;30.75;14.98;;;15.80;99.60;;;;;;5017621;28;20041;-75
2022/03/22 10:43:23;;;;;;;25.80;15.00;;;15.80;99.70;;;;;;5017585;28;20073;-75
2022/03/22 10:45:59;;;;;;;22.80;14.70;;;15.90;99.20;;;;;;5017635;28;20057;-76
2022/03/22 10:48:30;;;;;;;22.15;14.23;;;16.00;98.90;;;;;;5017837;28;20129;-75
2022/03/22 10:50:59;;;;;;;23.05;15.50;;;16.10;99.90;;;;;;5017630;28;20436;-75
2022/03/22 10:53:27;;;;;;;23.80;15.27;;;16.20;99.50;;;;;;5017367;28;20045;-74
2022/03/22 10:55:54;;;;;;;24.30;15.15;;;16.40;99.40;;;;;;5017270;28;20049;-74
2022/03/22 10:58:22;;;;;;;23.65;15.40;;;16.40;99.80;;;;;;5017373;28;20064;-77
2022/03/22 11:00:49;;;;;;;24.50;15.27;;;16.60;98.40;;;;;;5017336;28;20133;-74
2022/03/22 11:03:19;;;;;;;25.75;15.10;;;16.60;99.20;;;;;;5017232;28;20125;-72
2022/03/22 11:05:53;;;;;;;24.10;15.23;;;16.70;99.20;;;;;;5017140;28;20401;-74
2022/03/22 11:08:21;;;;;;;29.33;15.77;;;16.70;99.10;;;;;;5017157;28;20038;-75
2022/03/22 11:10:48;;;;;;;23.08;14.52;;;16.80;99.40;;;;;;5017467;28;20037;-74
2022/03/22 11:13:13;;;;;;;;;;;17.00;99.20;;;;;;5017375;28;20112;-72
2022/03/22 11:15:44;;;;;;;24.13;15.10;;;17.00;97.90;;;;;;5016954;28;20365;-75
2022/03/22 11:18:10;;;;;;;25.30;14.95;;;17.10;98.50;;;;;;5017107;28;20387;-74
2022/03/22 11:20:36;;;;;;;24.30;15.10;;;17.20;98.10;;;;;;5016935;28;20129;-72
2022/03/22 11:23:01;;;;;;;23.60;15.47;;;17.30;98.30;;;;;;5016861;28;20497;-74
2022/03/22 11:25:35;;;;;;;25.43;16.00;;;17.30;96.60;;;;;;5017134;28;20052;-73
2022/03/22 11:28:07;;;;;;;26.35;16.00;;;17.30;97.20;;;;;;5016827;28;20057;-75
2022/03/22 11:30:35;;;;;;;28.80;16.33;;;17.40;96.40;;;;;;5016833;28;20057;-72
2022/03/22 11:35:46;;;;;;;26.95;15.68;;;17.50;95.40;;;;;;5016924;28;20049;-75
2022/03/22 11:38:13;;;;;;;27.70;15.70;;;17.50;96.30;;;;;;5016637;28;20132;-75
2022/03/22 11:43:43;;;;;;;27.08;15.98;;;17.70;96.30;;;;;;5016285;28;20085;-75
2022/03/22 11:46:08;;;;;;;25.20;14.95;;;17.80;96.20;;;;;;5016400;28;20077;-73
2022/03/22 11:48:37;;;;;;;24.70;14.90;;;17.80;95.80;;;;;;5016439;28;20092;-74
2022/03/22 11:51:05;;;;;;;26.25;15.70;;;17.90;96.30;;;;;;5015512;28;20141;-75
2022/03/22 11:53:43;;;;;;;22.67;14.55;;;18.00;96.50;;;;;;5016336;28;20045;-74
2022/03/22 11:56:12;;;;;;;24.50;14.98;;;18.10;94.60;;;;;;5016193;28;20128;-74
2022/03/22 11:58:50;;;;;;;26.83;15.60;;;18.20;95.00;;;;;;5016205;28;20042;-75
2022/03/22 12:01:17;;;;;;;26.17;15.05;;;18.10;93.80;;;;;;5016112;28;20389;-75
2022/03/22 12:03:51;;;;;;;25.00;14.73;;;18.20;94.20;;;;;;5016336;28;20076;-73
2022/03/22 12:06:17;;;;;;;25.60;15.50;;;18.20;94.40;;;;;;5016184;28;20069;-75
2022/03/22 12:08:43;;;;;;;21.70;14.10;;;18.30;94.50;;;;;;5016015;28;20508;-73
2022/03/22 12:11:16;;;;;;;21.98;15.13;;;18.40;94.70;;;;;;5015970;28;20061;-74
2022/03/22 12:13:48;;;;;;;21.63;13.82;;;18.50;93.40;;;;;;5016067;28;20061;-75
2022/03/22 12:16:14;;;;;;;28.55;15.30;;;18.60;94.50;;;;;;5016014;28;20081;-77
2022/03/22 12:18:41;;;;;;;23.13;13.47;;;18.70;94.10;;;;;;5016071;28;20085;-74
2022/03/22 12:21:16;;;;;;;24.83;15.02;;;18.70;92.90;;;;;;5015798;28;20046;-76
2022/03/22 12:23:43;;;;;;;24.83;13.82;;;18.80;94.20;;;;;;5015896;28;20432;-74
2022/03/22 12:26:10;;;;;;;25.00;15.68;;;18.90;93.70;;;;;;5015691;28;20117;-72
2022/03/22 12:28:48;;;;;;;21.45;14.27;;;18.90;92.80;;;;;;5015324;28;20065;-73
2022/03/22 12:31:14;;;;;;;24.67;14.68;;;18.90;92.80;;;;;;5015687;28;20081;-73
2022/03/22 12:33:40;;;;;;;27.23;15.23;;;18.90;93.00;;;;;;5015539;28;20104;-72
2022/03/22 12:36:06;;;;;;;24.23;15.23;;;18.80;92.70;;;;;;5015410;28;20046;-75
2022/03/22 12:38:32;;;;;;;22.40;14.03;;;18.90;93.00;;;;;;5015506;28;20149;-74
2022/03/22 12:40:57;;;;;;;24.07;12.30;;;18.90;91.90;;;;;;5015502;28;20133;-73
2022/03/22 12:43:23;;;;;;;24.43;14.20;;;18.90;91.00;;;;;;5015391;28;20049;-72
2022/03/22 12:45:49;;;;;;;23.93;13.40;;;18.90;92.10;;;;;;5015358;28;20041;-73
2022/03/22 12:48:19;;;;;;;24.40;14.60;;;19.00;92.10;;;;;;5015226;28;20424;-72
2022/03/22 12:50:45;;;;;;;22.48;13.93;;;19.10;90.90;;;;;;5015269;28;20077;-75
2022/03/22 12:53:11;;;;;;;26.63;14.57;;;19.10;91.30;;;;;;5015261;28;20460;-73
2022/03/22 12:55:42;;;;;;;27.73;14.80;;;19.10;91.60;;;;;;5015121;28;20197;-73
2022/03/22 12:58:08;;;;;;;23.55;14.32;;;19.10;90.80;;;;;;5015065;28;20500;-73
2022/03/22 13:00:38;;;;;;;23.63;13.87;;;19.10;91.10;;;;;;5014934;28;20054;-76
2022/03/22 13:03:16;;;;;;;24.00;14.07;;;19.20;91.30;;;;;;5013725;28;20054;-75
2022/03/22 13:05:51;;;;;;;22.77;15.20;;;19.20;90.80;;;;;;5014662;28;20050;-73
2022/03/22 13:08:26;;;;;;;25.65;14.50;;;19.30;90.10;;;;;;5015304;28;20042;-76
2022/03/22 13:11:57;;;;;;;26.17;15.98;;;19.40;90.30;;;;;;5013585;28;20500;-74